Map

Track Data

SID SEASON NUMBER BASIN SUBBASIN NAME ISO_TIME NATURE LAT LON WMO_WIND WMO_PRES WMO_AGENCY TRACK_TYPE DIST2LAND LANDFALL IFLAG USA_AGENCY USA_ATCF_ID USA_LAT USA_LON USA_RECORD USA_STATUS USA_WIND USA_PRES USA_SSHS USA_R34_NE USA_R34_SE USA_R34_SW USA_R34_NW USA_R50_NE USA_R50_SE USA_R50_SW USA_R50_NW USA_R64_NE USA_R64_SE USA_R64_SW USA_R64_NW USA_POCI USA_ROCI USA_RMW USA_EYE TOKYO_LAT TOKYO_LON TOKYO_GRADE TOKYO_WIND TOKYO_PRES TOKYO_R50_DIR TOKYO_R50_LONG TOKYO_R50_SHORT TOKYO_R30_DIR TOKYO_R30_LONG TOKYO_R30_SHORT TOKYO_LAND CMA_LAT CMA_LON CMA_CAT CMA_WIND CMA_PRES HKO_LAT HKO_LON HKO_CAT HKO_WIND HKO_PRES NEWDELHI_LAT NEWDELHI_LON NEWDELHI_GRADE NEWDELHI_WIND NEWDELHI_PRES NEWDELHI_CI NEWDELHI_DP NEWDELHI_POCI REUNION_LAT REUNION_LON REUNION_TYPE REUNION_WIND REUNION_PRES REUNION_TNUM REUNION_CI REUNION_RMW REUNION_R34_NE REUNION_R34_SE REUNION_R34_SW REUNION_R34_NW REUNION_R50_NE REUNION_R50_SE REUNION_R50_SW REUNION_R50_NW REUNION_R64_NE REUNION_R64_SE REUNION_R64_SW REUNION_R64_NW BOM_LAT BOM_LON BOM_TYPE BOM_WIND BOM_PRES BOM_TNUM BOM_CI BOM_RMW BOM_R34_NE BOM_R34_SE BOM_R34_SW BOM_R34_NW BOM_R50_NE BOM_R50_SE BOM_R50_SW BOM_R50_NW BOM_R64_NE BOM_R64_SE BOM_R64_SW BOM_R64_NW BOM_ROCI BOM_POCI BOM_EYE BOM_POS_METHOD BOM_PRES_METHOD NADI_LAT NADI_LON NADI_CAT NADI_WIND NADI_PRES WELLINGTON_LAT WELLINGTON_LON WELLINGTON_WIND WELLINGTON_PRES DS824_LAT DS824_LON DS824_STAGE DS824_WIND DS824_PRES TD9636_LAT TD9636_LON TD9636_STAGE TD9636_WIND TD9636_PRES TD9635_LAT TD9635_LON TD9635_WIND TD9635_PRES TD9635_ROCI NEUMANN_LAT NEUMANN_LON NEUMANN_CLASS NEUMANN_WIND NEUMANN_PRES MLC_LAT MLC_LON MLC_CLASS MLC_WIND MLC_PRES USA_GUST BOM_GUST BOM_GUST_PER REUNION_GUST REUNION_GUST_PER USA_SEAHGT USA_SEARAD_NE USA_SEARAD_SE USA_SEARAD_SW USA_SEARAD_NW STORM_SPEED STORM_DIR
2021280N17111 2021 47 WP MM LIONROCK 2021-10-07 06:00:00 TS 16.8500 111.250 PROVISIONAL 217 195 O_____________ tcvightals WP222021 17.1000 111.000 29 998 -1 1002 230 70 4 323
2021280N17111 2021 47 WP MM LIONROCK 2021-10-07 09:00:00 TS 17.0263 111.114 PROVISIONAL 195 179 P_____________ WP222021 17.3200 110.838 29 997 -1 1001 215 67 4 321
2021280N17111 2021 47 WP MM LIONROCK 2021-10-07 12:00:00 TS 17.1500 111.000 PROVISIONAL 171 164 O_____________ tcvightals WP222021 17.4000 110.700 29 996 -1 1000 200 65 3 315
2021280N17111 2021 47 WP MM LIONROCK 2021-10-07 15:00:00 TS 17.2025 110.927 PROVISIONAL 164 155 P_____________ WP222021 17.2775 110.612 29 996 -1 1001 210 65 2 328
2021280N17111 2021 47 WP MM LIONROCK 2021-10-07 18:00:00 TS 17.3000 110.900 PROVISIONAL 155 138 O_____________ tcvightals WP222021 17.2000 110.600 29 996 -1 1002 220 65 4 4
2021280N17111 2021 47 WP MM LIONROCK 2021-10-07 21:00:00 TS 17.5662 110.936 PROVISIONAL 130 103 P_____________ WP222021 17.4493 110.716 32 995 -1 1002 210 57 6 5
2021280N17111 2021 47 WP MM LIONROCK 2021-10-08 00:00:00 TS 17.8889 110.933 PROVISIONAL 103 70 O_____________ tcvitals WP222021 17.8000 110.800 35 995 0 150 170 80 60 1002 200 50 6 349
2021280N17111 2021 47 WP MM LIONROCK 2021-10-08 03:00:00 TS 18.1676 110.809 PROVISIONAL 70 39 P_____________ WP222021 18.0473 110.678 -5 1002 200 47 6 333
2021280N17111 2021 47 WP MM LIONROCK 2021-10-08 06:00:00 TS 18.4389 110.639 PROVISIONAL 39 10 O_____________ tcvitals WP222021 18.2758 110.478 -5 1002 200 45 7 334
2021280N17111 2021 47 WP MM LIONROCK 2021-10-08 09:00:00 TS 18.7547 110.503 PROVISIONAL 0 0 P_____________ WP222021 18.4930 110.296 -5 1002 200 42 7 338
2021280N17111 2021 47 WP MM LIONROCK 2021-10-08 12:00:00 TS 19.0612 110.373 PROVISIONAL 0 0 O_____________ tcvitals WP222021 18.7512 110.154 -5 1002 200 40 6 340
2021280N17111 2021 47 WP MM LIONROCK 2021-10-08 15:00:00 TS 19.3262 110.290 PROVISIONAL 0 0 P_____________ WP222021 19.1461 110.147 -5 1002 227 40 5 334
2021280N17111 2021 47 WP MM LIONROCK 2021-10-08 18:00:00 TS 19.5000 110.150 PROVISIONAL 0 0 O_____________ tcvightals WP222021 19.5000 110.100 35 994 0 170 140 110 115 1002 255 40 5 310
2021280N17111 2021 47 WP MM LIONROCK 2021-10-08 21:00:00 TS 19.6363 109.900 PROVISIONAL 0 0 P_____________ WP222021 19.6339 109.803 35 994 0 162 140 97 102 1002 255 40 5 298
2021280N17111 2021 47 WP MM LIONROCK 2021-10-09 00:00:00 TS 19.7500 109.650 PROVISIONAL 0 0 O_____________ tcvightals WP222021 19.7000 109.500 35 995 0 155 140 85 90 1002 255 40 4 304
2021280N17111 2021 47 WP MM LIONROCK 2021-10-09 03:00:00 TS 19.8862 109.510 PROVISIONAL 0 0 P_____________ WP222021 19.8574 109.427 35 994 0 107 72 52 105 1002 247 50 3 317
2021280N17111 2021 47 WP MM LIONROCK 2021-10-09 06:00:00 TS 20.0000 109.400 PROVISIONAL 15 15 O_____________ tcvightals WP222021 20.0000 109.400 35 993 0 60 5 20 120 1002 240 60 3 307
2021280N17111 2021 47 WP MM LIONROCK 2021-10-09 09:00:00 TS 20.0612 109.261 PROVISIONAL 30 30 P_____________ WP222021 20.0650 109.272 35 993 0 65 12 30 130 1001 245 65 3 290
2021280N17111 2021 47 WP MM LIONROCK 2021-10-09 12:00:00 TS 20.1000 109.100 PROVISIONAL 39 39 O_____________ tcvightals WP222021 20.1000 109.100 35 993 0 70 20 40 140 1001 250 70 3 285
2021280N17111 2021 47 WP MM LIONROCK 2021-10-09 15:00:00 TS 20.1346 108.975 PROVISIONAL 45 45 P_____________ WP222021 20.1346 108.975 35 994 0 115 47 132 1001 250 70 4 285
2021280N17111 2021 47 WP MM LIONROCK 2021-10-09 18:00:00 TS 20.2000 108.700 PROVISIONAL 76 76 O_____________ tcvightals WP222021 20.2000 108.700 35 996 0 160 55 125 1001 250 70 9 283
2021280N17111 2021 47 WP MM LIONROCK 2021-10-09 21:00:00 TS 20.3357 108.080 PROVISIONAL 106 49 P_____________ WP222021 20.3357 108.080 35 996 0 1001 250 70 13 284
2021280N17111 2021 47 WP MM LIONROCK 2021-10-10 00:00:00 TS 20.5000 107.400 PROVISIONAL 49 10 O_____________ tcvightals WP222021 20.5000 107.400 35 996 0 1001 250 70 11 287
2021280N17111 2021 47 WP MM LIONROCK 2021-10-10 03:00:00 TS 20.6723 106.925 PROVISIONAL 10 0 P_____________ WP222021 20.6723 106.925 30 997 -1 1003 227 60 8 292
2021280N17111 2021 47 WP MM LIONROCK 2021-10-10 06:00:00 TS 20.8000 106.600 PROVISIONAL 0 0 O_____________ tcvightals WP222021 20.8000 106.600 25 998 -1 1006 205 50 5 289
2021280N17111 2021 47 WP MM LIONROCK 2021-10-10 09:00:00 TS 20.8298 106.442 PROVISIONAL 0 0 P_____________ WP222021 20.8296 106.457 22 1000 -1 1006 197 37 3 270
2021280N17111 2021 47 WP MM LIONROCK 2021-10-10 12:00:00 NR 20.8000 106.300 PROVISIONAL 0 0 O_____________ tcvightals WP222021 20.8000 106.300 19 1002 -1 1006 190 25 5 261
2021280N17111 2021 47 WP MM LIONROCK 2021-10-10 15:00:00 NR 20.7531 105.922 PROVISIONAL 0 0 P_____________ WP222021 20.7531 105.922 17 1006 -1 1006 190 25 8 263
2021280N17111 2021 47 WP MM LIONROCK 2021-10-10 18:00:00 NR 20.7000 105.400 PROVISIONAL 0 O_____________ tcgp WP222021 20.7000 105.400 DB 15 1010 -3 1006 190 25 10 264

Digital Typhoon Data and Search

About IBTrACS Database

This database is a web-friendly format of International Best Track Archive for Climate Stewardship (IBTrACS), a global best track data archive curated by NOAA dating back to 1842.

Updated: 2022-08-12